Time;durP1;ratioP1;P1;durP2;ratioP2;P2;SDS_P1;SDS_P2;PMS_P1;PMS_P2;Temp;Humidity;BMP_temperature;BMP_pressure;BME280_temperature;BME280_humidity;BME280_pressure;Samples;Min_cycle;Max_cycle;Signal;HPM_P1;HPM_P2
2024/01/16 00:01:30;;;;;;;0.60;0.50;;;1.90;90.70;;;;;;5092424;28;20979;-72
2024/01/16 00:03:58;;;;;;;8.33;1.00;;;1.90;90.70;;;;;;5092720;28;20527;-72
2024/01/16 00:06:26;;;;;;;1.07;0.50;;;1.90;90.50;;;;;;5091847;28;20460;-72
2024/01/16 00:08:54;;;;;;;1.43;1.13;;;1.90;90.50;;;;;;5092072;28;20448;-72
2024/01/16 00:11:22;;;;;;;0.50;0.10;;;1.90;90.70;;;;;;5082257;28;20506;-71
2024/01/16 00:13:50;;;;;;;2.60;2.50;;;1.90;90.70;;;;;;5085872;28;20535;-74
2024/01/16 00:16:19;;;;;;;0.70;0.20;;;1.90;90.30;;;;;;5091626;28;20464;-74
2024/01/16 00:18:47;;;;;;;0.80;0.40;;;1.90;90.70;;;;;;5091497;28;20519;-72
2024/01/16 00:21:15;;;;;;;1.00;0.63;;;1.80;90.40;;;;;;5092425;28;20484;-73
2024/01/16 00:23:43;;;;;;;0.50;0.10;;;1.80;91.00;;;;;;5092134;28;20476;-72
2024/01/16 00:26:20;;;;;;;0.73;0.47;;;1.80;91.70;;;;;;5092024;28;20521;-72
2024/01/16 00:28:48;;;;;;;1.03;1.03;;;1.80;92.60;;;;;;5078895;28;20804;-71
2024/01/16 00:31:16;;;;;;;0.63;0.30;;;1.80;97.90;;;;;;5087043;28;20436;-74
2024/01/16 00:33:45;;;;;;;2.00;0.80;;;1.70;99.30;;;;;;5095760;28;20464;-72
2024/01/16 00:36:14;;;;;;;2.20;1.70;;;1.60;98.10;;;;;;5094225;28;20460;-75
2024/01/16 00:38:41;;;;;;;0.70;0.30;;;1.60;99.90;;;;;;5074179;28;20514;-71
2024/01/16 00:41:09;;;;;;;1.00;0.33;;;1.60;99.90;;;;;;5073039;28;20481;-74
2024/01/16 00:43:38;;;;;;;1.07;0.47;;;1.60;99.90;;;;;;5091581;28;20440;-72
2024/01/16 00:46:05;;;;;;;1.37;0.53;;;1.50;99.90;;;;;;5091229;28;20871;-74
2024/01/16 00:48:33;;;;;;;5.20;1.53;;;3.90;99.90;;;;;;5087050;28;20519;-73
2024/01/16 00:51:03;;;;;;;0.50;0.20;;;1.50;99.90;;;;;;5091844;28;20527;-73
2024/01/16 00:53:31;;;;;;;0.73;0.30;;;1.50;99.90;;;;;;5072724;28;20468;-73
2024/01/16 00:55:59;;;;;;;0.50;0.23;;;1.40;99.90;;;;;;5077651;28;20494;-73
2024/01/16 00:58:27;;;;;;;0.50;0.20;;;1.40;99.90;;;;;;5074837;28;21014;-74
2024/01/16 01:00:55;;;;;;;1.70;1.10;;;1.30;99.90;;;;;;5075696;28;20503;-73
2024/01/16 01:03:23;;;;;;;1.17;0.60;;;1.40;99.90;;;;;;5085804;28;21092;-71
2024/01/16 01:05:51;;;;;;;0.60;0.40;;;1.40;99.90;;;;;;5088835;28;20444;-74
2024/01/16 01:08:21;;;;;;;0.50;0.10;;;1.40;99.90;;;;;;5108652;28;20460;-74
2024/01/16 01:10:49;;;;;;;0.53;0.30;;;1.50;99.90;;;;;;5110026;28;20511;-74
2024/01/16 01:13:17;;;;;;;0.70;0.50;;;1.50;99.90;;;;;;5101861;28;20579;-74
2024/01/16 01:15:45;;;;;;;0.50;0.10;;;1.50;99.90;;;;;;5093920;28;20437;-72
2024/01/16 01:18:13;;;;;;;0.50;0.10;;;1.50;99.40;;;;;;5112493;28;20456;-72
2024/01/16 01:20:41;;;;;;;0.50;0.20;;;1.50;99.50;;;;;;5111665;28;20488;-72
2024/01/16 01:23:09;;;;;;;0.50;0.20;;;1.50;99.60;;;;;;5100591;28;20448;-71
2024/01/16 01:25:39;;;;;;;0.50;0.20;;;;;;;;;;5090080;28;20518;-73
2024/01/16 01:28:07;;;;;;;0.50;0.10;;;1.50;99.90;;;;;;5101534;28;20622;-71
2024/01/16 01:30:35;;;;;;;0.50;0.20;;;1.60;99.90;;;;;;5103416;28;20470;-73
2024/01/16 01:33:03;;;;;;;0.50;0.10;;;1.60;99.90;;;;;;5106983;28;20459;-74
2024/01/16 01:35:31;;;;;;;0.50;0.10;;;1.70;99.90;;;;;;5109362;28;20436;-72
2024/01/16 01:37:59;;;;;;;0.50;0.10;;;1.70;99.90;;;;;;5110570;28;20476;-71
2024/01/16 01:40:27;;;;;;;0.50;0.10;;;1.70;99.90;;;;;;5109313;28;20476;-71
2024/01/16 01:42:56;;;;;;;0.50;0.30;;;1.80;99.90;;;;;;5102589;28;20472;-73
2024/01/16 01:45:24;;;;;;;0.60;0.40;;;1.80;99.90;;;;;;5108177;28;20448;-72
2024/01/16 01:47:52;;;;;;;0.97;0.87;;;1.80;99.60;;;;;;5094214;28;20472;-74
2024/01/16 01:50:20;;;;;;;0.50;0.10;;;1.80;99.90;;;;;;5094306;28;20953;-73
2024/01/16 01:52:48;;;;;;;0.70;0.30;;;1.80;99.90;;;;;;5093092;28;20456;-74
2024/01/16 01:55:16;;;;;;;0.50;0.10;;;1.80;99.80;;;;;;5095857;28;20436;-74
2024/01/16 01:57:45;;;;;;;1.00;0.63;;;1.70;99.20;;;;;;5095322;28;20547;-72
2024/01/16 02:00:17;;;;;;;0.50;0.10;;;1.70;99.10;;;;;;5086693;28;20908;-72
2024/01/16 02:02:46;;;;;;;0.50;0.23;;;1.80;99.30;;;;;;5092203;28;20451;-73
2024/01/16 02:05:17;;;;;;;0.50;0.20;;;1.70;99.20;;;;;;5078858;28;20929;-69
2024/01/16 02:07:45;;;;;;;0.50;0.10;;;1.70;98.90;;;;;;5074905;28;21000;-72
2024/01/16 02:10:13;;;;;;;2.60;0.30;;;1.80;99.90;;;;;;5085222;28;20515;-73
2024/01/16 02:12:41;;;;;;;0.80;0.57;;;1.80;99.70;;;;;;5074876;28;20575;-72
2024/01/16 02:15:09;;;;;;;0.50;0.20;;;1.80;99.60;;;;;;5081390;28;20535;-70
2024/01/16 02:17:39;;;;;;;0.70;0.50;;;1.80;99.00;;;;;;5074775;28;20556;-73
2024/01/16 02:20:08;;;;;;;0.50;0.10;;;1.80;98.60;;;;;;5076821;28;20964;-73
2024/01/16 02:22:38;;;;;;;0.80;0.50;;;1.80;98.90;;;;;;5093616;28;20516;-75
2024/01/16 02:25:08;;;;;;;0.50;0.20;;;1.70;98.50;;;;;;5080776;28;20535;-74
2024/01/16 02:27:36;;;;;;;0.50;0.10;;;1.80;99.20;;;;;;5094466;28;20965;-74
2024/01/16 02:30:06;;;;;;;0.50;0.27;;;1.80;98.20;;;;;;5095294;28;20544;-73
2024/01/16 02:32:34;;;;;;;0.87;0.40;;;1.70;97.80;;;;;;5098307;28;20452;-74
2024/01/16 02:35:02;;;;;;;0.50;0.20;;;1.70;97.60;;;;;;5098108;28;20448;-72
2024/01/16 02:37:32;;;;;;;0.83;0.83;;;;;;;;;;5093994;28;21019;-74
2024/01/16 02:40:00;;;;;;;0.50;0.10;;;1.70;97.70;;;;;;5094509;28;20476;-72
2024/01/16 02:42:31;;;;;;;0.50;0.10;;;1.70;98.60;;;;;;5079304;28;20516;-73
2024/01/16 02:44:59;;;;;;;0.50;0.10;;;1.70;98.40;;;;;;5079266;28;20499;-74
2024/01/16 02:47:26;;;;;;;0.50;0.10;;;1.80;99.00;;;;;;5073440;28;20464;-74
2024/01/16 02:49:54;;;;;;;0.50;0.10;;;1.90;99.20;;;;;;5073151;28;20448;-74
2024/01/16 02:52:22;;;;;;;0.50;0.10;;;1.90;99.50;;;;;;5073240;28;20445;-74
2024/01/16 02:54:50;;;;;;;0.50;0.10;;;4.40;99.90;;;;;;5073366;28;20997;-74
2024/01/16 02:57:18;;;;;;;0.50;0.10;;;1.90;99.30;;;;;;5128838;22;20553;-70
2024/01/16 02:59:47;;;;;;;0.50;0.10;;;1.90;99.50;;;;;;5123379;27;20895;-71
2024/01/16 03:02:15;;;;;;;0.50;0.10;;;1.90;99.90;;;;;;5122711;27;20841;-70
2024/01/16 03:04:43;;;;;;;0.50;0.10;;;2.00;99.90;;;;;;5113064;28;20450;-70
2024/01/16 03:07:11;;;;;;;0.50;0.10;;;2.00;99.80;;;;;;5099366;28;21020;-71
2024/01/16 03:09:39;;;;;;;0.50;0.10;;;2.00;99.40;;;;;;5092281;28;20531;-70
2024/01/16 03:12:07;;;;;;;0.50;0.10;;;1.90;98.40;;;;;;5093000;28;20436;-70
2024/01/16 03:14:36;;;;;;;1.73;0.67;;;1.80;97.20;;;;;;5106448;28;20966;-70
2024/01/16 03:17:07;;;;;;;0.50;0.20;;;1.70;96.90;;;;;;5111670;28;20871;-71
2024/01/16 03:19:35;;;;;;;0.50;0.10;;;1.70;96.90;;;;;;5112494;28;20941;-71
2024/01/16 03:22:03;;;;;;;0.80;0.73;;;1.60;96.50;;;;;;5109476;28;20478;-71
2024/01/16 03:24:31;;;;;;;1.47;1.37;;;1.60;96.80;;;;;;5112704;28;20436;-71
2024/01/16 03:26:59;;;;;;;0.93;0.83;;;1.50;96.50;;;;;;5099124;28;20901;-71
2024/01/16 03:29:26;;;;;;;0.50;0.20;;;1.40;96.90;;;;;;5094751;28;20462;-71
2024/01/16 03:31:54;;;;;;;0.97;0.87;;;1.40;97.30;;;;;;5099622;28;20432;-70
2024/01/16 03:34:24;;;;;;;0.50;0.10;;;1.40;97.60;;;;;;5097687;28;20461;-71
2024/01/16 03:36:52;;;;;;;0.50;0.10;;;1.40;98.20;;;;;;5111115;28;20494;-71
2024/01/16 03:39:20;;;;;;;0.50;0.10;;;1.40;98.80;;;;;;5112432;28;20450;-71
2024/01/16 03:41:48;;;;;;;1.43;0.67;;;1.40;98.60;;;;;;5094847;28;20475;-70
2024/01/16 03:44:16;;;;;;;2.43;2.00;;;1.50;98.30;;;;;;5092331;28;20443;-71
2024/01/16 03:46:44;;;;;;;0.50;0.10;;;1.40;97.70;;;;;;5099635;28;20479;-71
2024/01/16 03:49:11;;;;;;;0.50;0.10;;;1.40;97.10;;;;;;5096740;28;20444;-70
2024/01/16 03:51:42;;;;;;;0.60;0.43;;;1.40;96.80;;;;;;5100214;28;20452;-71
2024/01/16 03:54:10;;;;;;;1.20;0.70;;;1.30;96.50;;;;;;5110871;28;20504;-71
2024/01/16 03:56:38;;;;;;;0.60;0.57;;;1.30;96.50;;;;;;5112067;28;20550;-71
2024/01/16 03:59:06;;;;;;;4.30;4.00;;;1.30;95.70;;;;;;5112126;28;20497;-70
2024/01/16 04:01:36;;;;;;;0.50;0.10;;;1.30;94.90;;;;;;5110664;28;20479;-70
2024/01/16 04:04:06;;;;;;;0.50;0.30;;;1.30;95.60;;;;;;5112139;28;20527;-70
2024/01/16 04:06:34;;;;;;;0.50;0.10;;;1.40;95.50;;;;;;5112374;28;20467;-70
2024/01/16 04:09:04;;;;;;;0.60;0.37;;;1.40;95.50;;;;;;5097847;28;20948;-70
2024/01/16 04:11:32;;;;;;;0.90;0.43;;;1.40;94.90;;;;;;5098712;28;20543;-71
2024/01/16 04:14:00;;;;;;;2.40;1.30;;;1.40;94.10;;;;;;5100265;28;20440;-70
2024/01/16 04:16:28;;;;;;;0.50;0.10;;;;;;;;;;5100369;28;20463;-70
2024/01/16 04:18:56;;;;;;;0.50;0.10;;;1.40;94.50;;;;;;5091576;28;20444;-70
2024/01/16 04:21:24;;;;;;;0.57;0.20;;;1.50;94.50;;;;;;5091748;28;20440;-69
2024/01/16 04:23:52;;;;;;;0.73;0.73;;;1.50;93.80;;;;;;5101025;28;20531;-70
2024/01/16 04:26:21;;;;;;;0.60;0.50;;;1.50;93.60;;;;;;5104432;28;20475;-70
2024/01/16 04:28:49;;;;;;;0.77;0.40;;;1.50;93.50;;;;;;5099065;28;20548;-70
2024/01/16 04:31:19;;;;;;;0.90;0.63;;;1.40;93.30;;;;;;5102233;28;20823;-70
2024/01/16 04:33:47;;;;;;;0.50;0.10;;;1.50;93.80;;;;;;5091035;28;20998;-70
2024/01/16 04:36:15;;;;;;;0.50;0.10;;;1.50;93.80;;;;;;5099752;28;20976;-70
2024/01/16 04:38:43;;;;;;;0.50;0.10;;;1.50;94.00;;;;;;5091045;28;20436;-70
2024/01/16 04:41:10;;;;;;;0.60;0.27;;;1.60;93.90;;;;;;5091580;28;20441;-70
2024/01/16 04:43:40;;;;;;;0.50;0.10;;;1.50;93.20;;;;;;5108878;28;20482;-70
2024/01/16 04:46:08;;;;;;;0.50;0.10;;;1.50;93.20;;;;;;5107730;28;20542;-71
2024/01/16 04:48:36;;;;;;;3.03;1.63;;;1.50;92.40;;;;;;5091379;28;20539;-70
2024/01/16 04:51:04;;;;;;;0.50;0.10;;;1.40;92.40;;;;;;5097206;28;20439;-70
2024/01/16 04:53:32;;;;;;;0.50;0.10;;;1.50;93.40;;;;;;5111980;28;20989;-69
2024/01/16 04:56:00;;;;;;;0.50;0.10;;;1.40;92.70;;;;;;5106586;28;20477;-70
2024/01/16 04:58:28;;;;;;;0.50;0.20;;;1.30;92.80;;;;;;5090986;28;20528;-70
2024/01/16 05:00:57;;;;;;;1.13;0.93;;;1.30;97.70;;;;;;5103562;28;20539;-70
2024/01/16 05:03:25;;;;;;;1.73;1.60;;;1.20;98.00;;;;;;5105157;28;20475;-70
2024/01/16 05:05:53;;;;;;;3.60;1.33;;;1.00;94.20;;;;;;5109668;28;20915;-70
2024/01/16 05:08:21;;;;;;;0.50;0.10;;;1.00;99.50;;;;;;5110352;28;20462;-71
2024/01/16 05:10:49;;;;;;;0.50;0.30;;;1.00;99.90;;;;;;5110745;28;20822;-71
2024/01/16 05:13:17;;;;;;;0.60;0.33;;;1.10;99.90;;;;;;5102863;28;20436;-71
2024/01/16 05:15:45;;;;;;;1.30;0.30;;;1.10;98.40;;;;;;5090189;28;20479;-71
2024/01/16 05:18:14;;;;;;;0.50;0.30;;;1.10;99.90;;;;;;5103016;28;20473;-71
2024/01/16 05:20:43;;;;;;;0.50;0.20;;;1.00;99.90;;;;;;5105977;28;20591;-70
2024/01/16 05:23:11;;;;;;;0.50;0.10;;;1.00;99.90;;;;;;5109657;28;20486;-70
2024/01/16 05:25:39;;;;;;;0.50;0.30;;;1.10;99.90;;;;;;5109000;28;20962;-71
2024/01/16 05:28:07;;;;;;;0.50;0.20;;;1.10;99.90;;;;;;5111844;28;20435;-70
2024/01/16 05:30:34;;;;;;;0.50;0.10;;;1.20;99.90;;;;;;5109933;28;20464;-70
2024/01/16 05:33:03;;;;;;;1.63;0.50;;;1.20;99.90;;;;;;5104946;28;20431;-70
2024/01/16 05:35:32;;;;;;;0.50;0.20;;;1.20;99.90;;;;;;5104670;28;20455;-69
2024/01/16 05:38:00;;;;;;;8.83;1.13;;;1.20;99.90;;;;;;5103789;28;20466;-70
2024/01/16 05:40:29;;;;;;;0.50;0.10;;;1.20;99.90;;;;;;5093306;28;20440;-71
2024/01/16 05:42:57;;;;;;;0.50;0.10;;;1.20;99.90;;;;;;5104944;28;20641;-71
2024/01/16 05:45:25;;;;;;;1.37;1.27;;;1.20;99.90;;;;;;5097494;28;20443;-71
2024/01/16 05:47:52;;;;;;;0.50;0.10;;;1.20;99.70;;;;;;5114199;28;20541;-71
2024/01/16 05:50:20;;;;;;;0.50;0.10;;;1.20;99.00;;;;;;5106916;28;20843;-70
2024/01/16 05:52:50;;;;;;;3.63;1.93;;;1.20;99.90;;;;;;5113386;28;20487;-69
2024/01/16 05:55:18;;;;;;;0.50;0.17;;;1.20;97.40;;;;;;5110742;28;21046;-70
2024/01/16 05:57:45;;;;;;;0.50;0.10;;;1.20;97.50;;;;;;5113424;28;20471;-69
2024/01/16 06:00:14;;;;;;;0.50;0.13;;;1.20;99.90;;;;;;5113732;28;20446;-69
2024/01/16 06:02:42;;;;;;;1.40;1.30;;;1.20;99.90;;;;;;5101011;28;20554;-70
2024/01/16 06:05:10;;;;;;;0.50;0.10;;;1.30;99.90;;;;;;5109029;28;20865;-70
2024/01/16 06:07:39;;;;;;;0.90;0.73;;;1.30;98.80;;;;;;5095577;28;20468;-70
2024/01/16 06:10:10;;;;;;;0.50;0.10;;;1.30;99.90;;;;;;5093387;28;20543;-70
2024/01/16 06:12:37;;;;;;;0.50;0.10;;;1.30;99.90;;;;;;5100458;28;20519;-70
2024/01/16 06:15:06;;;;;;;0.50;0.10;;;1.20;99.90;;;;;;5098059;28;20534;-70
2024/01/16 06:17:34;;;;;;;0.50;0.10;;;1.20;97.80;;;;;;5113463;28;20817;-70
2024/01/16 06:20:04;;;;;;;0.50;0.20;;;1.30;99.90;;;;;;5109094;28;20444;-70
2024/01/16 06:22:32;;;;;;;0.50;0.10;;;1.30;99.90;;;;;;5095140;28;20962;-70
2024/01/16 06:25:01;;;;;;;0.50;0.10;;;1.30;99.90;;;;;;5106790;28;20468;-70
2024/01/16 06:27:31;;;;;;;0.50;0.10;;;1.30;97.70;;;;;;5101009;28;20466;-71
2024/01/16 06:29:58;;;;;;;0.50;0.10;;;1.40;99.90;;;;;;5112181;28;20530;-71
2024/01/16 06:32:26;;;;;;;0.50;0.10;;;1.40;99.90;;;;;;5096711;28;20447;-70
2024/01/16 06:34:54;;;;;;;0.50;0.10;;;1.30;99.90;;;;;;5096071;28;20488;-70
2024/01/16 06:37:22;;;;;;;0.50;0.10;;;1.30;96.20;;;;;;5102208;28;20476;-70
2024/01/16 06:39:50;;;;;;;0.50;0.10;;;1.30;99.90;;;;;;5100919;28;20436;-70
2024/01/16 06:42:18;;;;;;;0.50;0.10;;;1.40;99.90;;;;;;5098193;28;20435;-70
2024/01/16 06:44:47;;;;;;;0.50;0.10;;;1.30;99.90;;;;;;5098268;28;20476;-72
2024/01/16 06:47:15;;;;;;;0.50;0.10;;;1.30;96.00;;;;;;5093524;28;20971;-70
2024/01/16 06:49:43;;;;;;;0.50;0.17;;;1.30;99.90;;;;;;5093155;28;20543;-70
2024/01/16 06:52:11;;;;;;;0.70;0.63;;;1.30;99.90;;;;;;5107225;28;20446;-71
2024/01/16 06:54:38;;;;;;;0.60;0.30;;;1.30;99.50;;;;;;5109651;28;20440;-72
2024/01/16 06:57:06;;;;;;;0.50;0.10;;;1.10;94.20;;;;;;5092371;28;20464;-70
2024/01/16 06:59:34;;;;;;;2.10;2.00;;;1.10;99.00;;;;;;5095861;28;20559;-71
2024/01/16 07:02:04;;;;;;;2.83;0.93;;;1.00;99.00;;;;;;5107002;28;20491;-71
2024/01/16 07:04:32;;;;;;;2.20;1.03;;;;;;;;;;5102169;28;20463;-70
2024/01/16 07:07:00;;;;;;;0.50;0.10;;;0.80;93.90;;;;;;5102201;28;20509;-71
2024/01/16 07:09:29;;;;;;;0.50;0.23;;;;;;;;;;5107786;28;20926;-72
2024/01/16 07:11:57;;;;;;;0.50;0.10;;;0.80;94.70;;;;;;5094407;28;20531;-70
2024/01/16 07:14:25;;;;;;;0.50;0.10;;;0.80;94.60;;;;;;5110157;28;20432;-70
2024/01/16 07:16:53;;;;;;;0.83;0.53;;;0.70;95.40;;;;;;5113379;28;20463;-70
2024/01/16 07:19:22;;;;;;;0.50;0.10;;;0.70;94.90;;;;;;5112444;28;20439;-71
2024/01/16 07:21:50;;;;;;;0.50;0.10;;;0.70;99.10;;;;;;5107784;27;20835;-72
2024/01/16 07:24:18;;;;;;;0.50;0.10;;;;;;;;;;5112147;28;21136;-71
2024/01/16 07:26:46;;;;;;;0.50;0.10;;;0.60;95.00;;;;;;5112045;28;20525;-71
2024/01/16 07:29:14;;;;;;;0.50;0.17;;;0.60;99.90;;;;;;5112066;28;20853;-71
2024/01/16 07:31:42;;;;;;;0.60;0.40;;;0.60;99.90;;;;;;5112036;28;20451;-71
2024/01/16 07:34:10;;;;;;;1.37;1.27;;;0.60;99.90;;;;;;5107247;28;21358;-72
2024/01/16 07:36:39;;;;;;;1.30;1.20;;;0.70;96.00;;;;;;5091856;28;20464;-71
2024/01/16 07:39:08;;;;;;;0.60;0.30;;;0.70;99.90;;;;;;5091829;28;20448;-70
2024/01/16 07:41:36;;;;;;;0.50;0.23;;;0.70;99.90;;;;;;5097037;28;20531;-71
2024/01/16 07:44:04;;;;;;;0.50;0.10;;;0.90;99.90;;;;;;5091439;28;20483;-71
2024/01/16 07:46:32;;;;;;;0.50;0.10;;;0.80;96.10;;;;;;5099490;28;21017;-70
2024/01/16 07:49:00;;;;;;;0.50;0.10;;;0.90;99.90;;;;;;5108064;28;20463;-71
2024/01/16 07:51:28;;;;;;;0.50;0.10;;;0.90;99.90;;;;;;5107597;28;20447;-70
2024/01/16 07:54:07;;;;;;;1.63;0.77;;;0.90;99.80;;;;;;5100510;28;20971;-71
2024/01/16 07:56:36;;;;;;;0.50;0.10;;;0.90;93.40;;;;;;5091499;28;20525;-70
2024/01/16 07:59:06;;;;;;;0.50;0.10;;;0.90;98.30;;;;;;5100959;28;20439;-71
2024/01/16 08:01:34;;;;;;;0.50;0.10;;;3.10;99.60;;;;;;5103779;28;20463;-71
2024/01/16 08:04:08;;;;;;;1.10;0.83;;;;;;;;;;5095297;28;20951;-72
2024/01/16 08:06:45;;;;;;;0.50;0.10;;;1.00;93.50;;;;;;5094664;28;20491;-71
2024/01/16 08:09:14;;;;;;;0.50;0.10;;;1.00;93.50;;;;;;5099556;28;20448;-71
2024/01/16 08:11:42;;;;;;;1.63;1.53;;;1.00;98.70;;;;;;5099607;28;20447;-71
2024/01/16 08:14:10;;;;;;;0.67;0.60;;;1.10;97.80;;;;;;5092103;28;21034;-71
2024/01/16 08:16:38;;;;;;;0.63;0.60;;;1.00;91.20;;;;;;5094473;28;20460;-71
2024/01/16 08:19:07;;;;;;;0.50;0.10;;;0.90;94.90;;;;;;5111256;28;20535;-70
2024/01/16 08:21:36;;;;;;;1.00;0.80;;;0.70;93.80;;;;;;5111614;28;20478;-71
2024/01/16 08:24:04;;;;;;;0.50;0.20;;;0.70;95.30;;;;;;5090930;28;20997;-70
2024/01/16 08:26:33;;;;;;;0.50;0.20;;;0.80;91.30;;;;;;5094310;28;20463;-73
2024/01/16 08:29:01;;;;;;;0.50;0.10;;;0.80;91.60;;;;;;5104178;28;20468;-71
2024/01/16 08:31:29;;;;;;;0.60;0.40;;;0.80;96.50;;;;;;5094741;28;21017;-70
2024/01/16 08:33:57;;;;;;;1.57;0.60;;;0.80;96.70;;;;;;5091208;28;20447;-71
2024/01/16 08:36:25;;;;;;;0.97;0.97;;;0.70;91.20;;;;;;5105711;28;21013;-71
2024/01/16 08:38:55;;;;;;;0.73;0.40;;;0.80;96.80;;;;;;5110637;28;20479;-72
2024/01/16 08:41:23;;;;;;;0.60;0.47;;;0.80;96.80;;;;;;5096312;28;20527;-71
2024/01/16 08:43:54;;;;;;;0.60;0.30;;;0.80;97.40;;;;;;5090279;28;20444;-72
2024/01/16 08:46:22;;;;;;;6.80;2.67;;;0.90;91.30;;;;;;5101860;28;20472;-72
2024/01/16 08:48:50;;;;;;;2.13;2.03;;;0.80;96.30;;;;;;5098443;28;20887;-71
2024/01/16 08:51:18;;;;;;;3.83;1.13;;;0.80;95.00;;;;;;5096004;28;20810;-71
2024/01/16 08:53:46;;;;;;;0.50;0.17;;;0.70;94.90;;;;;;5110896;28;20465;-71
2024/01/16 08:56:14;;;;;;;1.30;1.20;;;0.70;90.10;;;;;;5101609;28;20467;-70
2024/01/16 08:58:42;;;;;;;1.10;0.87;;;0.70;90.40;;;;;;5102539;28;20463;-69
2024/01/16 09:01:11;;;;;;;7.40;1.17;;;0.70;95.70;;;;;;5106220;28;20447;-69
2024/01/16 09:03:39;;;;;;;1.37;0.33;;;0.70;94.90;;;;;;5099251;28;20451;-71
2024/01/16 09:06:08;;;;;;;0.50;0.10;;;0.60;90.80;;;;;;5104409;28;20511;-73
2024/01/16 09:08:37;;;;;;;0.50;0.10;;;0.60;96.30;;;;;;5105721;28;20455;-70
2024/01/16 09:11:05;;;;;;;0.50;0.20;;;0.80;97.70;;;;;;5099283;28;20533;-72
2024/01/16 09:13:33;;;;;;;0.70;0.30;;;0.80;93.40;;;;;;5105519;28;20491;-71
2024/01/16 09:16:01;;;;;;;0.50;0.10;;;0.90;92.00;;;;;;5107692;28;20516;-70
2024/01/16 09:18:30;;;;;;;0.50;0.10;;;0.90;97.30;;;;;;5105211;28;20436;-70
2024/01/16 09:20:58;;;;;;;1.73;1.10;;;0.90;97.60;;;;;;5104152;28;20785;-70
2024/01/16 09:23:26;;;;;;;0.50;0.10;;;0.90;91.00;;;;;;5109715;28;20923;-71
2024/01/16 09:25:55;;;;;;;0.50;0.20;;;;;;;;;;5108387;28;20903;-70
2024/01/16 09:28:24;;;;;;;0.60;0.47;;;1.00;91.60;;;;;;5101067;28;20435;-70
2024/01/16 09:30:52;;;;;;;0.50;0.10;;;1.00;91.60;;;;;;5113850;27;20528;-71
2024/01/16 09:33:20;;;;;;;0.50;0.10;;;1.00;91.50;;;;;;5115041;28;20447;-71
2024/01/16 09:35:49;;;;;;;0.70;0.20;;;1.20;93.00;;;;;;5114815;28;20447;-71
2024/01/16 09:38:17;;;;;;;0.50;0.10;;;1.30;92.50;;;;;;5114743;28;20445;-71
2024/01/16 09:40:52;;;;;;;0.50;0.10;;;1.40;92.50;;;;;;5113855;28;20451;-70
2024/01/16 09:43:21;;;;;;;0.50;0.17;;;1.40;91.40;;;;;;5094860;28;20451;-71
2024/01/16 09:45:52;;;;;;;1.13;0.83;;;1.50;90.60;;;;;;5097534;28;21072;-71
2024/01/16 09:48:20;;;;;;;0.80;0.20;;;1.50;89.30;;;;;;5110894;28;20463;-71
2024/01/16 09:50:49;;;;;;;1.03;0.93;;;1.50;86.80;;;;;;5098186;28;20444;-71
2024/01/16 09:53:17;;;;;;;0.50;0.10;;;1.50;86.70;;;;;;5108354;28;20864;-71
2024/01/16 09:55:46;;;;;;;0.80;0.67;;;1.50;87.60;;;;;;5110473;28;20478;-71
2024/01/16 09:58:14;;;;;;;1.80;1.70;;;1.50;88.50;;;;;;5101280;28;20505;-70
2024/01/16 10:00:44;;;;;;;0.50;0.30;;;1.60;86.30;;;;;;5096020;28;20952;-71
2024/01/16 10:03:14;;;;;;;0.60;0.30;;;1.60;87.10;;;;;;5101347;28;20455;-70
2024/01/16 10:05:43;;;;;;;0.50;0.20;;;1.70;86.00;;;;;;5109001;28;20475;-70
2024/01/16 10:08:13;;;;;;;1.90;1.60;;;1.50;82.60;;;;;;5106409;28;21016;-70
2024/01/16 10:10:41;;;;;;;2.03;1.87;;;1.50;82.00;;;;;;5098073;28;20432;-71
2024/01/16 10:13:18;;;;;;;2.13;1.17;;;1.40;79.70;;;;;;5102350;28;20516;-69
2024/01/16 10:15:49;;;;;;;0.50;0.10;;;1.30;82.30;;;;;;5113746;28;20440;-70
2024/01/16 10:18:25;;;;;;;0.90;0.30;;;1.30;83.70;;;;;;5113683;28;20978;-71
2024/01/16 10:20:53;;;;;;;0.50;0.10;;;4.30;88.00;;;;;;5113620;28;20467;-71
2024/01/16 10:23:28;;;;;;;0.50;0.20;;;1.50;87.10;;;;;;5108103;28;20445;-71
2024/01/16 10:26:09;;;;;;;0.87;0.57;;;1.50;87.30;;;;;;5093176;28;20559;-70
2024/01/16 10:28:39;;;;;;;0.50;0.10;;;1.50;86.10;;;;;;5092904;28;20443;-70
2024/01/16 10:31:09;;;;;;;0.50;0.10;;;1.50;85.40;;;;;;5108458;28;20490;-70
2024/01/16 10:33:39;;;;;;;0.50;0.10;;;1.60;86.90;;;;;;5113169;28;20454;-71
2024/01/16 10:36:11;;;;;;;0.50;0.10;;;1.60;84.20;;;;;;5113040;28;20521;-70
2024/01/16 10:38:42;;;;;;;0.50;0.20;;;1.60;83.70;;;;;;5110106;28;20475;-70
2024/01/16 10:41:11;;;;;;;1.43;1.20;;;1.60;84.00;;;;;;5102217;28;20448;-71
2024/01/16 10:43:40;;;;;;;0.50;0.30;;;1.50;83.40;;;;;;5107872;28;20462;-71
2024/01/16 10:46:09;;;;;;;0.50;0.10;;;1.50;84.60;;;;;;5109408;28;20488;-70
2024/01/16 10:48:37;;;;;;;0.50;0.10;;;1.60;86.10;;;;;;5092866;28;20494;-70
2024/01/16 10:51:08;;;;;;;0.50;0.10;;;1.70;86.40;;;;;;5108952;28;20446;-70
2024/01/16 10:53:38;;;;;;;0.50;0.10;;;1.70;87.80;;;;;;5113361;28;20717;-69
2024/01/16 10:56:11;;;;;;;0.50;0.10;;;1.80;87.30;;;;;;5101147;28;20468;-69
2024/01/16 10:58:42;;;;;;;0.50;0.10;;;1.90;86.80;;;;;;5093182;28;20475;-70
2024/01/16 11:01:13;;;;;;;0.50;0.30;;;2.00;86.50;;;;;;5109090;28;20438;-70
2024/01/16 11:03:47;;;;;;;0.83;0.83;;;2.00;84.50;;;;;;5112617;28;20972;-69
2024/01/16 11:06:17;;;;;;;0.50;0.10;;;2.10;84.30;;;;;;5112738;28;21850;-69
2024/01/16 11:08:47;;;;;;;0.50;0.10;;;2.10;83.20;;;;;;5112698;28;20442;-70
2024/01/16 11:11:17;;;;;;;1.43;0.53;;;2.10;78.30;;;;;;5112565;28;20439;-71
2024/01/16 11:13:47;;;;;;;0.87;0.70;;;2.10;79.00;;;;;;5107397;28;20477;-69
2024/01/16 11:16:15;;;;;;;0.50;0.30;;;2.20;81.60;;;;;;5113454;28;20868;-70
2024/01/16 11:18:43;;;;;;;0.50;0.10;;;2.30;81.70;;;;;;5112345;28;20435;-70
2024/01/16 11:21:13;;;;;;;0.50;0.10;;;2.40;81.00;;;;;;5110615;28;20431;-70
2024/01/16 11:23:46;;;;;;;3.43;1.17;;;2.50;77.10;;;;;;5112538;28;20832;-70
2024/01/16 11:26:27;;;;;;;2.83;2.63;;;2.50;73.20;;;;;;5112180;28;20495;-69
2024/01/16 11:28:57;;;;;;;2.00;1.40;;;2.40;66.40;;;;;;5110839;28;20539;-70
2024/01/16 11:31:32;;;;;;;1.80;0.40;;;2.20;61.20;;;;;;5106051;28;20446;-70
2024/01/16 11:34:01;;;;;;;3.07;1.13;;;2.10;61.80;;;;;;5111876;28;20443;-70
2024/01/16 11:37:01;;;;;;;0.50;0.10;;;2.10;67.10;;;;;;5097748;28;20582;-71
2024/01/16 11:39:29;;;;;;;0.50;0.10;;;2.20;69.30;;;;;;5035664;28;20490;-70
2024/01/16 11:42:01;;;;;;;1.80;1.70;;;2.30;71.00;;;;;;5097816;28;20553;-70
2024/01/16 11:44:42;;;;;;;0.50;0.20;;;2.50;70.20;;;;;;5111548;28;20435;-70
2024/01/16 11:47:16;;;;;;;2.43;1.73;;;2.70;71.10;;;;;;5101436;28;20484;-70
2024/01/16 11:49:44;;;;;;;0.50;0.10;;;2.80;69.50;;;;;;5098243;28;20463;-70
2024/01/16 11:52:12;;;;;;;0.50;0.10;;;3.00;68.90;;;;;;5094394;28;20435;-69
2024/01/16 11:54:41;;;;;;;0.50;0.20;;;3.10;67.00;;;;;;5096606;28;20816;-69
2024/01/16 11:57:36;;;;;;;2.60;0.87;;;3.20;61.90;;;;;;5105686;28;20482;-70
2024/01/16 12:00:12;;;;;;;0.50;0.10;;;3.10;56.50;;;;;;5109746;28;20463;-70
2024/01/16 12:02:52;;;;;;;0.60;0.27;;;3.10;54.70;;;;;;5110750;28;20474;-70
2024/01/16 12:05:21;;;;;;;1.37;0.60;;;3.10;52.90;;;;;;5091303;28;20436;-70
2024/01/16 12:07:52;;;;;;;0.50;0.10;;;3.10;53.40;;;;;;5090789;28;20466;-70
2024/01/16 12:10:21;;;;;;;0.50;0.10;;;3.10;53.60;;;;;;5104488;28;20454;-70
2024/01/16 12:12:57;;;;;;;0.50;0.10;;;3.10;53.10;;;;;;5108710;28;20524;-70
2024/01/16 12:15:27;;;;;;;1.27;0.87;;;3.20;51.80;;;;;;5111178;28;20858;-70
2024/01/16 12:17:57;;;;;;;1.00;0.87;;;3.10;47.00;;;;;;5111139;28;20502;-71
2024/01/16 12:20:27;;;;;;;2.70;2.00;;;2.90;46.10;;;;;;5099616;28;20541;-69
2024/01/16 12:22:58;;;;;;;0.50;0.20;;;2.90;46.90;;;;;;5111507;28;20809;-70
2024/01/16 12:25:26;;;;;;;0.50;0.10;;;3.00;49.90;;;;;;5111819;28;20526;-71
2024/01/16 12:28:19;;;;;;;0.63;0.47;;;3.00;48.50;;;;;;5111315;28;20428;-69
2024/01/16 12:31:00;;;;;;;1.90;0.63;;;3.10;49.70;;;;;;5111877;28;20973;-71
2024/01/16 12:33:30;;;;;;;0.80;0.80;;;3.20;48.20;;;;;;5112059;28;20439;-71
2024/01/16 12:36:03;;;;;;;0.50;0.10;;;3.10;45.90;;;;;;5107032;28;20571;-70
2024/01/16 12:38:32;;;;;;;0.50;0.10;;;3.30;49.30;;;;;;5096801;28;20451;-69
2024/01/16 12:41:02;;;;;;;0.50;0.10;;;3.40;49.70;;;;;;5090923;28;20513;-70
2024/01/16 12:43:33;;;;;;;0.50;0.10;;;3.50;49.40;;;;;;5090856;28;20936;-70
2024/01/16 12:46:01;;;;;;;5.20;1.03;;;3.40;43.50;;;;;;5095137;28;20451;-70
2024/01/16 12:48:29;;;;;;;3.70;0.97;;;3.30;41.90;;;;;;5110618;28;20500;-71
2024/01/16 12:51:02;;;;;;;4.53;0.63;;;3.30;42.20;;;;;;5110906;28;20606;-69
2024/01/16 12:53:31;;;;;;;0.50;0.10;;;3.30;43.30;;;;;;5111514;28;20471;-70
2024/01/16 12:56:00;;;;;;;0.50;0.10;;;3.40;42.80;;;;;;5106702;28;20549;-70
2024/01/16 12:58:35;;;;;;;0.50;0.10;;;3.50;43.50;;;;;;5114948;28;20451;-70
2024/01/16 13:01:25;;;;;;;0.50;0.10;;;3.60;42.90;;;;;;5106269;28;20436;-70
2024/01/16 13:04:06;;;;;;;0.50;0.10;;;3.70;40.00;;;;;;5095108;28;20440;-70
2024/01/16 13:06:34;;;;;;;0.70;0.40;;;3.60;35.10;;;;;;5094865;28;20484;-70
2024/01/16 13:09:10;;;;;;;1.00;0.90;;;3.50;33.50;;;;;;5096447;28;20442;-69
2024/01/16 13:11:50;;;;;;;0.50;0.10;;;3.40;32.00;;;;;;5095135;28;20814;-70